Costa Pacifica — ICJA — position and weather

sailwx.info

Track history (hours):
 
Tides and Currents Weather Stations Pressure Air Temp Water Temp Dewpoint Dewpoint Depression Visibility Wind Speed Wind Dir Waves Ship Positions

Costa Pacifica

Last reported at 2019-Jan-23 16:19 UTC. Time now 2019-Jan-23 18:21 UTC.
Position N 17°16' W 062°44'.

Length 290 m; draft 8.3 m.

Type: Ship. MMSI: 247258100.

Date/timePositionNaut miles runAvg speedWind from/ knotsBaromVisibWave heightAir tempDewpointWater temp
2019-Jan-23 16:19N 17°16' W 062°44'718.0
2019-Jan-23 15:55N 17°14' W 062°52'1120.5
2019-Jan-23 15:22N 17°12' W 063°03'2121.0
2019-Jan-23 14:20N 17°06' W 063°25'  
2019-Jan-20 23:57N 17°45' W 063°36'2021.4
2019-Jan-20 23:01N 17°55' W 063°18'221.9
2019-Jan-20 22:55N 17°55' W 063°16'1021.2
2019-Jan-20 22:27N 17°59' W 063°06'4 8.0
2019-Jan-20 22:00N 18°01' W 063°03'0 0.0
2019-Jan-20 21:27N 18°01' W 063°03'0 0.0
2019-Jan-20 20:53N 18°01' W 063°03'0 0.0
2019-Jan-20 20:17N 18°01' W 063°03'0 0.0
2019-Jan-20 19:59N 18°01' W 063°03'0 0.0
2019-Jan-20 19:26N 18°01' W 063°03'0 0.0
2019-Jan-20 18:52N 18°01' W 063°03'0 0.0
2019-Jan-20 18:22N 18°01' W 063°03'0 0.0
2019-Jan-20 16:58N 18°01' W 063°03'0 0.0
2019-Jan-20 16:26N 18°01' W 063°03'1 2.8
2019-Jan-20 15:57N 18°00' W 063°04'811.4
2019-Jan-20 15:17N 17°53' W 063°05'715.1
2019-Jan-20 14:49N 17°45' W 063°06'815.1
2019-Jan-20 14:16N 17°37' W 063°06'714.7
2019-Jan-20 13:48N 17°30' W 063°06'1214.8
2019-Jan-20 12:58N 17°20' W 062°58'2715.6
2019-Jan-20 11:13N 16°59' W 062°41'416.0
2019-Jan-20 10:59N 16°56' W 062°38'915.1
2019-Jan-20 10:21N 16°48' W 062°32'140 4.5
2019-Jan-19 03:07N 14°41' W 061°30'214.5
2019-Jan-19 03:00N 14°41' W 061°28'1114.9
2019-Jan-19 02:16N 14°38' W 061°18'415.1
2019-Jan-19 02:00N 14°37' W 061°14'714.7
2019-Jan-19 01:30N 14°35' W 061°06'3 5.5
2019-Jan-19 01:00N 14°36' W 061°04'0 0.0
2019-Jan-19 00:30N 14°36' W 061°04'0 0.0
2019-Jan-18 23:18N 14°36' W 061°04'0 0.0
2019-Jan-18 22:11N 14°36' W 061°04'0 0.0
2019-Jan-18 21:56N 14°36' W 061°04'0 0.0
2019-Jan-18 18:58N 14°36' W 061°04'6 0.8
2019-Jan-18 11:42N 14°36' W 061°10'1215.0
2019-Jan-18 10:54N 14°38' W 061°22'2014.3
2019-Jan-18 09:28N 14°45' W 061°42'122 4.5
2019-Jan-17 06:07N 16°38' W 062°29'39 7.0
2019-Jan-17 00:29N 17°14' W 062°46'2 0.3
2019-Jan-16 16:15N 17°16' W 062°45'818.6
2019-Jan-16 15:49N 17°14' W 062°54'718.3
2019-Jan-16 15:25N 17°12' W 063°01'2718.7
2019-Jan-16 13:57N 17°05' W 063°29'  
2019-Jan-13 23:59N 17°45' W 063°36'1821.4
2019-Jan-13 23:09N 17°54' W 063°19'721.6
2019-Jan-13 22:50N 17°57' W 063°13'919.0
2019-Jan-13 22:22N 18°00' W 063°04'1 1.2
2019-Jan-13 21:09N 18°01' W 063°03'0 0.0
2019-Jan-13 20:50N 18°01' W 063°03'0 0.0
2019-Jan-13 20:23N 18°01' W 063°03'0 0.0
2019-Jan-13 19:50N 18°01' W 063°03'0 0.0
2019-Jan-13 19:28N 18°01' W 063°03'0 0.0
2019-Jan-13 18:58N 18°01' W 063°03'0 0.0
2019-Jan-13 18:25N 18°01' W 063°03'0 0.0
2019-Jan-13 17:52N 18°01' W 063°03'0 0.0
2019-Jan-13 17:19N 18°01' W 063°03'  
Track history (hours):
 
Tides and Currents Weather Stations Pressure Air Temp Water Temp Dewpoint Dewpoint Depression Visibility Wind Speed Wind Dir Waves Ship Positions

Costa Pacifica

Last reported at 2019-Jan-23 16:19 UTC. Time now 2019-Jan-23 18:21 UTC.
Position N 17°16' W 062°44'.

Length 290 m; draft 8.3 m.

Type: Ship. MMSI: 247258100.

Date/timePositionNaut miles runAvg speedWind from/ knotsBaromVisibWave heightAir tempDewpointWater temp
2019-Jan-23 16:19N 17°16' W 062°44'718.0
2019-Jan-23 15:55N 17°14' W 062°52'1120.5
2019-Jan-23 15:22N 17°12' W 063°03'2121.0
2019-Jan-23 14:20N 17°06' W 063°25'  
2019-Jan-20 23:57N 17°45' W 063°36'2021.4
2019-Jan-20 23:01N 17°55' W 063°18'221.9
2019-Jan-20 22:55N 17°55' W 063°16'1021.2
2019-Jan-20 22:27N 17°59' W 063°06'4 8.0
2019-Jan-20 22:00N 18°01' W 063°03'0 0.0
2019-Jan-20 21:27N 18°01' W 063°03'0 0.0
2019-Jan-20 20:53N 18°01' W 063°03'0 0.0
2019-Jan-20 20:17N 18°01' W 063°03'0 0.0
2019-Jan-20 19:59N 18°01' W 063°03'0 0.0
2019-Jan-20 19:26N 18°01' W 063°03'0 0.0
2019-Jan-20 18:52N 18°01' W 063°03'0 0.0
2019-Jan-20 18:22N 18°01' W 063°03'0 0.0
2019-Jan-20 16:58N 18°01' W 063°03'0 0.0
2019-Jan-20 16:26N 18°01' W 063°03'1 2.8
2019-Jan-20 15:57N 18°00' W 063°04'811.4
2019-Jan-20 15:17N 17°53' W 063°05'715.1
2019-Jan-20 14:49N 17°45' W 063°06'815.1
2019-Jan-20 14:16N 17°37' W 063°06'714.7
2019-Jan-20 13:48N 17°30' W 063°06'1214.8
2019-Jan-20 12:58N 17°20' W 062°58'2715.6
2019-Jan-20 11:13N 16°59' W 062°41'416.0
2019-Jan-20 10:59N 16°56' W 062°38'915.1
2019-Jan-20 10:21N 16°48' W 062°32'140 4.5
2019-Jan-19 03:07N 14°41' W 061°30'214.5
2019-Jan-19 03:00N 14°41' W 061°28'1114.9
2019-Jan-19 02:16N 14°38' W 061°18'415.1
2019-Jan-19 02:00N 14°37' W 061°14'714.7
2019-Jan-19 01:30N 14°35' W 061°06'3 5.5
2019-Jan-19 01:00N 14°36' W 061°04'0 0.0
2019-Jan-19 00:30N 14°36' W 061°04'0 0.0
2019-Jan-18 23:18N 14°36' W 061°04'0 0.0
2019-Jan-18 22:11N 14°36' W 061°04'0 0.0
2019-Jan-18 21:56N 14°36' W 061°04'0 0.0
2019-Jan-18 18:58N 14°36' W 061°04'6 0.8
2019-Jan-18 11:42N 14°36' W 061°10'1215.0
2019-Jan-18 10:54N 14°38' W 061°22'2014.3
2019-Jan-18 09:28N 14°45' W 061°42'122 4.5
2019-Jan-17 06:07N 16°38' W 062°29'39 7.0
2019-Jan-17 00:29N 17°14' W 062°46'2 0.3
2019-Jan-16 16:15N 17°16' W 062°45'818.6
2019-Jan-16 15:49N 17°14' W 062°54'718.3
2019-Jan-16 15:25N 17°12' W 063°01'2718.7
2019-Jan-16 13:57N 17°05' W 063°29'  
2019-Jan-13 23:59N 17°45' W 063°36'1821.4
2019-Jan-13 23:09N 17°54' W 063°19'721.6
2019-Jan-13 22:50N 17°57' W 063°13'919.0
2019-Jan-13 22:22N 18°00' W 063°04'1 1.2
2019-Jan-13 21:09N 18°01' W 063°03'0 0.0
2019-Jan-13 20:50N 18°01' W 063°03'0 0.0
2019-Jan-13 20:23N 18°01' W 063°03'0 0.0
2019-Jan-13 19:50N 18°01' W 063°03'0 0.0
2019-Jan-13 19:28N 18°01' W 063°03'0 0.0
2019-Jan-13 18:58N 18°01' W 063°03'0 0.0
2019-Jan-13 18:25N 18°01' W 063°03'0 0.0
2019-Jan-13 17:52N 18°01' W 063°03'0 0.0
2019-Jan-13 17:19N 18°01' W 063°03'  

Dump ship's entire track history